Time;durP1;ratioP1;P1;durP2;ratioP2;P2;SDS_P1;SDS_P2;PMS_P1;PMS_P2;Temp;Humidity;BMP_temperature;BMP_pressure;BME280_temperature;BME280_humidity;BME280_pressure;Samples;Min_cycle;Max_cycle;Signal;HPM_P1;HPM_P2
2021/05/19 00:01:22;;;;;;;3.92;1.70;;;;;;;;;;6837683;28;20134;-83
2021/05/19 00:04:43;;;;;;;7.93;2.03;;;;;;;;;;6813416;29;20036;-84
2021/05/19 00:08:03;;;;;;;5.65;1.58;;;;;;;;;;6838673;28;20409;-84
2021/05/19 00:11:24;;;;;;;4.72;1.88;;;;;;;;;;6846471;28;20025;-85
2021/05/19 00:14:44;;;;;;;3.25;1.75;;;;;;;;;;6830783;29;20097;-84
2021/05/19 00:18:05;;;;;;;3.42;1.50;;;;;;;;;;6837609;28;20039;-84
2021/05/19 00:21:26;;;;;;;7.70;2.22;;;;;;;;;;6833587;28;20034;-84
2021/05/19 00:24:46;;;;;;;7.40;1.67;;;;;;;;;;6835757;28;20034;-84
2021/05/19 00:28:07;;;;;;;4.75;1.75;;;;;;;;;;6836071;28;20108;-84
2021/05/19 00:31:32;;;;;;;5.72;1.98;;;;;;;;;;6876594;23;20056;-84
2021/05/19 00:34:52;;;;;;;3.47;1.75;;;;;;;;;;6813022;29;20034;-84
2021/05/19 00:38:12;;;;;;;4.55;1.50;;;;;;;;;;6820187;29;20027;-84
2021/05/19 00:41:34;;;;;;;4.90;1.63;;;;;;;;;;6834907;28;20470;-84
2021/05/19 00:44:55;;;;;;;4.25;1.60;;;;;;;;;;6808430;28;20086;-84
2021/05/19 00:48:15;;;;;;;4.85;1.33;;;;;;;;;;6821399;29;20040;-84
2021/05/19 00:51:36;;;;;;;4.72;1.70;;;;;;;;;;6840703;28;20039;-84
2021/05/19 00:54:56;;;;;;;1.95;1.30;;;;;;;;;;6822039;29;20386;-84
2021/05/19 00:58:17;;;;;;;2.35;1.40;;;;;;;;;;6834344;28;20042;-84
2021/05/19 01:01:38;;;;;;;4.28;1.80;;;;;;;;;;6823869;28;20027;-83
2021/05/19 01:04:58;;;;;;;3.88;1.83;;;;;;;;;;6809616;29;20125;-84
2021/05/19 01:11:58;;;;;;;2.72;1.10;;;;;;;;;;6822510;28;20036;-85
2021/05/19 01:15:19;;;;;;;5.40;1.52;;;;;;;;;;6813461;28;20050;-84
2021/05/19 01:18:40;;;;;;;3.45;1.42;;;;;;;;;;6817005;29;20044;-84
2021/05/19 01:22:06;;;;;;;4.50;1.15;;;;;;;;;;6823313;29;20038;-83
2021/05/19 01:25:27;;;;;;;3.22;1.40;;;;;;;;;;6830027;29;20039;-84
2021/05/19 01:28:47;;;;;;;3.20;1.13;;;;;;;;;;6839511;28;20035;-83
2021/05/19 01:32:07;;;;;;;4.28;1.40;;;;;;;;;;6838644;28;20057;-83
2021/05/19 01:35:28;;;;;;;5.15;1.48;;;;;;;;;;6813577;29;20347;-84
2021/05/19 01:38:48;;;;;;;2.33;0.90;;;;;;;;;;6824900;28;20118;-84
2021/05/19 01:42:09;;;;;;;5.10;1.20;;;;;;;;;;6790446;29;20055;-83
2021/05/19 01:45:30;;;;;;;2.30;1.42;;;;;;;;;;6807146;29;20179;-84
2021/05/19 01:48:58;;;;;;;2.88;1.20;;;;;;;;;;6812855;29;20123;-84
2021/05/19 01:52:18;;;;;;;2.35;1.40;;;;;;;;;;6826648;29;20023;-84
2021/05/19 01:55:39;;;;;;;3.80;1.50;;;;;;;;;;6822757;29;20136;-84
2021/05/19 01:58:59;;;;;;;4.43;1.42;;;;;;;;;;6821776;29;20058;-83
2021/05/19 02:02:23;;;;;;;13.40;1.77;;;;;;;;;;6825108;29;20035;-84
2021/05/19 02:05:43;;;;;;;2.78;1.10;;;;;;;;;;6824305;29;20462;-84
2021/05/19 02:09:04;;;;;;;2.05;1.23;;;;;;;;;;6826503;29;20034;-85
2021/05/19 02:12:24;;;;;;;2.88;1.38;;;;;;;;;;6800770;29;20438;-85
2021/05/19 02:15:44;;;;;;;2.58;1.10;;;;;;;;;;6835144;29;20363;-85
2021/05/19 02:19:08;;;;;;;5.72;1.42;;;;;;;;;;6833386;29;20080;-85
2021/05/19 02:22:29;;;;;;;2.35;1.08;;;;;;;;;;6823778;29;20067;-85
2021/05/19 02:25:49;;;;;;;3.08;1.00;;;;;;;;;;6822387;28;20035;-85
2021/05/19 02:29:10;;;;;;;5.05;1.40;;;;;;;;;;6824175;29;20110;-85
2021/05/19 02:32:30;;;;;;;3.90;1.15;;;;;;;;;;6835703;29;20047;-84
2021/05/19 02:35:53;;;;;;;4.20;1.20;;;;;;;;;;6831910;29;20466;-84
2021/05/19 02:39:13;;;;;;;2.15;1.23;;;;;;;;;;6817130;29;20049;-85
2021/05/19 02:42:34;;;;;;;3.08;1.10;;;;;;;;;;6814479;28;20028;-84
2021/05/19 02:45:55;;;;;;;4.53;1.35;;;;;;;;;;6802743;29;20028;-84
2021/05/19 02:49:16;;;;;;;1.20;1.00;;;;;;;;;;6801085;29;20111;-85
2021/05/19 02:52:36;;;;;;;2.60;1.13;;;;;;;;;;6818619;28;20035;-84
2021/05/19 02:55:56;;;;;;;2.20;1.25;;;;;;;;;;6824585;28;20039;-83
2021/05/19 02:59:17;;;;;;;4.10;1.10;;;;;;;;;;6838270;28;20124;-83
2021/05/19 03:02:37;;;;;;;2.20;1.40;;;;;;;;;;6819092;29;20023;-83
2021/05/19 03:05:58;;;;;;;4.35;1.40;;;;;;;;;;6822215;29;20032;-84
2021/05/19 03:09:18;;;;;;;3.08;0.95;;;;;;;;;;6828026;29;20114;-84
2021/05/19 03:12:39;;;;;;;3.90;1.30;;;;;;;;;;6824336;29;20425;-84
2021/05/19 03:16:00;;;;;;;2.08;1.00;;;;;;;;;;6816789;29;20494;-84
2021/05/19 03:19:20;;;;;;;2.72;1.40;;;;;;;;;;6809855;29;20553;-83
2021/05/19 03:22:40;;;;;;;1.25;1.00;;;;;;;;;;6810691;29;20194;-85
2021/05/19 03:26:01;;;;;;;1.90;1.10;;;;;;;;;;6828373;29;20051;-85
2021/05/19 03:29:21;;;;;;;2.47;1.02;;;;;;;;;;6828102;29;20020;-85
2021/05/19 03:32:42;;;;;;;2.13;1.08;;;;;;;;;;6813815;29;20028;-85
2021/05/19 03:36:05;;;;;;;1.75;1.15;;;;;;;;;;6819222;28;20384;-86
2021/05/19 03:39:25;;;;;;;2.08;1.10;;;;;;;;;;6820347;28;20034;-86
2021/05/19 03:42:46;;;;;;;2.38;1.15;;;;;;;;;;6830943;28;20035;-84
2021/05/19 03:46:06;;;;;;;2.63;1.00;;;;;;;;;;6817984;28;20035;-85
2021/05/19 03:49:28;;;;;;;3.03;1.00;;;;;;;;;;6837688;28;20042;-85
2021/05/19 03:52:49;;;;;;;1.13;0.90;;;;;;;;;;6821827;29;20034;-85
2021/05/19 03:56:13;;;;;;;1.52;0.95;;;;;;;;;;6822780;29;20028;-84
2021/05/19 03:59:34;;;;;;;4.38;1.00;;;;;;;;;;6821050;29;20381;-84
2021/05/19 04:02:55;;;;;;;2.15;1.02;;;;;;;;;;6808657;29;20114;-85
2021/05/19 04:06:15;;;;;;;2.97;0.90;;;;;;;;;;6809819;29;20034;-85
2021/05/19 04:09:36;;;;;;;2.40;1.20;;;;;;;;;;6810962;29;20118;-84
2021/05/19 04:12:56;;;;;;;1.75;0.88;;;;;;;;;;6798088;29;20031;-84
2021/05/19 04:16:17;;;;;;;2.45;1.20;;;;;;;;;;6823860;29;20042;-84
2021/05/19 04:19:37;;;;;;;2.35;1.17;;;;;;;;;;6840754;28;20458;-84
2021/05/19 04:22:58;;;;;;;2.80;1.00;;;;;;;;;;6856349;28;20038;-84
2021/05/19 04:26:18;;;;;;;2.13;1.00;;;;;;;;;;6836749;28;20054;-84
2021/05/19 04:29:39;;;;;;;1.50;1.10;;;;;;;;;;6797652;29;20051;-84
2021/05/19 04:32:59;;;;;;;2.05;1.00;;;;;;;;;;6798435;29;20063;-84
2021/05/19 04:36:20;;;;;;;3.65;1.05;;;;;;;;;;6822670;28;20027;-84
2021/05/19 04:39:40;;;;;;;1.48;1.20;;;;;;;;;;6822179;28;20479;-85
2021/05/19 04:43:07;;;;;;;1.42;0.80;;;;;;;;;;6812681;28;20409;-86
2021/05/19 04:46:27;;;;;;;1.58;1.00;;;;;;;;;;6843548;28;20027;-88
2021/05/19 04:49:47;;;;;;;1.10;0.70;;;;;;;;;;6813160;28;20107;-87
2021/05/19 04:53:08;;;;;;;1.13;0.95;;;;;;;;;;6826463;28;20110;-89
2021/05/19 04:56:28;;;;;;;2.47;0.80;;;;;;;;;;6815955;28;20453;-87
2021/05/19 04:59:49;;;;;;;1.20;0.95;;;;;;;;;;6837421;29;20039;-87
2021/05/19 05:03:11;;;;;;;2.88;1.17;;;;;;;;;;6844771;28;20528;-87
2021/05/19 05:06:31;;;;;;;0.77;0.77;;;;;;;;;;6827362;29;20543;-86
2021/05/19 05:09:55;;;;;;;2.05;0.90;;;;;;;;;;6838403;29;20023;-85
2021/05/19 05:13:16;;;;;;;1.05;0.73;;;;;;;;;;6811674;29;20541;-85
2021/05/19 05:16:36;;;;;;;1.08;0.90;;;;;;;;;;6834396;29;20042;-81
2021/05/19 05:19:57;;;;;;;1.55;1.00;;;;;;;;;;6829684;29;20066;-81
2021/05/19 05:23:17;;;;;;;1.02;0.70;;;;;;;;;;6809319;29;20032;-82
2021/05/19 05:26:38;;;;;;;2.05;0.80;;;;;;;;;;6820671;28;20030;-82
2021/05/19 05:29:58;;;;;;;6.47;1.00;;;;;;;;;;6809351;29;20055;-81
2021/05/19 05:33:19;;;;;;;1.60;0.90;;;;;;;;;;6815113;29;20055;-88
2021/05/19 05:36:39;;;;;;;2.95;2.30;;;;;;;;;;6809905;29;20504;-88
2021/05/19 05:40:00;;;;;;;2.10;2.00;;;;;;;;;;6826594;29;20056;-88
2021/05/19 05:43:21;;;;;;;2.17;2.05;;;;;;;;;;6814792;28;20466;-87
2021/05/19 05:46:41;;;;;;;6.40;6.00;;;;;;;;;;6829770;28;20377;-88
2021/05/19 05:50:03;;;;;;;6.22;5.82;;;;;;;;;;6822120;29;20078;-88
2021/05/19 05:53:24;;;;;;;5.70;5.20;;;;;;;;;;6807404;29;20122;-88
2021/05/19 05:56:44;;;;;;;2.80;1.23;;;;;;;;;;6810664;29;20038;-83
2021/05/19 06:00:07;;;;;;;1.42;1.13;;;;;;;;;;6781388;29;20082;-83
2021/05/19 06:03:27;;;;;;;3.35;1.13;;;;;;;;;;6793776;29;20039;-81
2021/05/19 06:06:48;;;;;;;1.30;1.20;;;;;;;;;;6825034;29;20122;-81
2021/05/19 06:10:09;;;;;;;5.32;1.30;;;;;;;;;;6825844;29;20039;-81
2021/05/19 06:13:29;;;;;;;3.80;1.33;;;;;;;;;;6807247;29;20070;-83
2021/05/19 06:16:50;;;;;;;1.85;1.10;;;;;;;;;;6822143;29;20051;-83
2021/05/19 06:20:12;;;;;;;8.05;1.83;;;;;;;;;;6820725;29;20063;-86
2021/05/19 06:23:32;;;;;;;1.90;1.80;;;;;;;;;;6824891;29;20031;-87
2021/05/19 06:26:53;;;;;;;3.53;1.80;;;;;;;;;;6809270;29;20123;-88
2021/05/19 06:30:14;;;;;;;3.78;1.63;;;;;;;;;;6799019;29;20165;-86
2021/05/19 06:33:35;;;;;;;4.03;1.80;;;;;;;;;;6815027;29;20431;-86
2021/05/19 06:36:56;;;;;;;5.80;1.80;;;;;;;;;;6818235;29;20023;-84
2021/05/19 06:40:16;;;;;;;2.85;1.80;;;;;;;;;;6815897;29;20123;-84
2021/05/19 06:43:37;;;;;;;5.65;1.20;;;;;;;;;;6804687;29;20043;-87
2021/05/19 06:46:57;;;;;;;12.55;1.35;;;;;;;;;;6814026;29;20067;-84
2021/05/19 06:50:18;;;;;;;2.80;1.15;;;;;;;;;;6811054;29;20027;-84
2021/05/19 06:53:38;;;;;;;7.82;1.20;;;;;;;;;;6828076;29;20031;-84
2021/05/19 06:56:58;;;;;;;6.25;1.00;;;;;;;;;;6812962;29;20116;-85
2021/05/19 07:00:20;;;;;;;1.33;0.73;;;;;;;;;;6811765;29;20036;-83
2021/05/19 07:03:40;;;;;;;5.10;0.77;;;;;;;;;;6819732;29;20062;-85
2021/05/19 07:07:01;;;;;;;6.22;0.80;;;;;;;;;;6819478;29;20378;-83
2021/05/19 07:10:23;;;;;;;3.58;0.98;;;;;;;;;;6819819;29;20055;-84
2021/05/19 07:13:43;;;;;;;1.27;0.57;;;;;;;;;;6814083;29;20047;-84
2021/05/19 07:17:04;;;;;;;0.75;0.60;;;;;;;;;;6815593;29;20109;-84
2021/05/19 07:20:24;;;;;;;3.40;0.60;;;;;;;;;;6826835;29;20063;-83
2021/05/19 07:23:45;;;;;;;0.60;0.60;;;;;;;;;;6819742;29;20063;-84
2021/05/19 07:27:05;;;;;;;1.92;0.85;;;;;;;;;;6812990;29;20036;-84
2021/05/19 07:30:26;;;;;;;3.25;0.80;;;;;;;;;;6813415;28;20086;-83
2021/05/19 07:33:47;;;;;;;4.60;1.25;;;;;;;;;;6805245;29;20035;-84
2021/05/19 07:37:08;;;;;;;4.30;1.02;;;;;;;;;;6811364;29;20028;-84
2021/05/19 07:40:28;;;;;;;5.78;0.90;;;;;;;;;;6803481;29;20062;-84
2021/05/19 07:43:49;;;;;;;5.13;1.00;;;;;;;;;;6814516;29;20032;-83
2021/05/19 07:47:11;;;;;;;3.60;1.00;;;;;;;;;;6817685;29;20042;-84
2021/05/19 07:50:32;;;;;;;4.97;1.42;;;;;;;;;;6798784;29;20107;-83
2021/05/19 07:53:53;;;;;;;3.25;0.90;;;;;;;;;;6803365;29;20027;-83
2021/05/19 07:57:22;;;;;;;5.85;1.10;;;;;;;;;;6822692;29;20042;-82
2021/05/19 08:04:26;;;;;;;1.80;1.15;;;;;;;;;;6804328;29;20106;-84
2021/05/19 08:07:47;;;;;;;4.32;1.00;;;;;;;;;;6825709;29;20123;-82
2021/05/19 08:11:09;;;;;;;4.60;1.00;;;;;;;;;;6802975;29;20028;-83
2021/05/19 08:14:30;;;;;;;0.82;0.73;;;;;;;;;;6816565;28;20426;-83
2021/05/19 08:17:51;;;;;;;1.02;0.98;;;;;;;;;;6786922;29;20501;-85
2021/05/19 08:21:11;;;;;;;1.38;0.98;;;;;;;;;;6804056;29;20028;-85
2021/05/19 08:24:32;;;;;;;4.43;1.05;;;;;;;;;;6812174;29;20051;-83
2021/05/19 08:27:52;;;;;;;2.05;1.00;;;;;;;;;;6830755;29;20031;-84
2021/05/19 08:31:15;;;;;;;0.90;0.90;;;;;;;;;;6815379;29;20107;-86
2021/05/19 08:34:36;;;;;;;1.27;0.90;;;;;;;;;;6805037;29;20103;-82
2021/05/19 08:37:56;;;;;;;1.85;0.80;;;;;;;;;;6804594;29;20114;-84
2021/05/19 08:41:17;;;;;;;0.80;0.80;;;;;;;;;;6813119;29;20110;-84
2021/05/19 08:44:39;;;;;;;6.50;0.90;;;;;;;;;;6847137;28;20023;-81
2021/05/19 08:48:02;;;;;;;4.35;0.90;;;;;;;;;;6838949;28;20505;-82
2021/05/19 08:51:22;;;;;;;2.17;0.95;;;;;;;;;;6817383;29;20032;-82
2021/05/19 08:54:42;;;;;;;7.30;0.90;;;;;;;;;;6815274;28;20047;-80
2021/05/19 08:58:03;;;;;;;1.42;1.00;;;;;;;;;;6821864;28;20436;-80
2021/05/19 09:01:25;;;;;;;1.85;0.85;;;;;;;;;;6819026;29;20428;-82
2021/05/19 09:04:57;;;;;;;0.88;0.70;;;;;;;;;;6838791;28;20043;-83
2021/05/19 09:08:19;;;;;;;2.55;0.85;;;;;;;;;;6818940;29;20059;-84
2021/05/19 09:12:03;;;;;;;2.83;0.82;;;;;;;;;;6818417;29;20051;-82
2021/05/19 09:15:24;;;;;;;2.83;0.85;;;;;;;;;;6837145;28;20050;-82
2021/05/19 09:18:50;;;;;;;4.43;0.90;;;;;;;;;;6825420;29;20381;-83
2021/05/19 09:22:19;;;;;;;2.42;0.90;;;;;;;;;;6830290;28;20039;-83
2021/05/19 09:25:39;;;;;;;2.38;0.70;;;;;;;;;;6832903;28;20062;-82
2021/05/19 09:29:23;;;;;;;2.20;0.80;;;;;;;;;;6836721;29;20039;-83
2021/05/19 09:32:44;;;;;;;1.50;0.85;;;;;;;;;;6824447;28;20087;-82
2021/05/19 09:36:20;;;;;;;3.22;0.90;;;;;;;;;;6838232;28;20039;-82
2021/05/19 09:39:57;;;;;;;1.65;0.80;;;;;;;;;;6833232;28;20505;-82
2021/05/19 09:43:31;;;;;;;1.08;0.80;;;;;;;;;;6831315;28;20083;-82
2021/05/19 09:46:52;;;;;;;3.05;0.70;;;;;;;;;;6830716;28;20024;-82
2021/05/19 09:50:15;;;;;;;2.45;0.90;;;;;;;;;;6829539;28;20035;-82
2021/05/19 09:53:35;;;;;;;2.20;1.00;;;;;;;;;;6831023;28;20027;-84
2021/05/19 09:57:01;;;;;;;4.32;0.90;;;;;;;;;;6823351;28;20058;-82
2021/05/19 10:00:24;;;;;;;2.95;0.90;;;;;;;;;;6815662;29;20035;-83
2021/05/19 10:03:44;;;;;;;1.10;0.70;;;;;;;;;;6833583;28;20434;-83
2021/05/19 10:07:17;;;;;;;0.95;0.80;;;;;;;;;;6848383;28;20031;-82
2021/05/19 10:10:38;;;;;;;1.73;0.60;;;;;;;;;;6831644;28;20032;-83
2021/05/19 10:13:59;;;;;;;0.98;0.80;;;;;;;;;;6822188;28;20092;-83
2021/05/19 10:17:20;;;;;;;2.58;0.80;;;;;;;;;;6830426;29;20039;-82
2021/05/19 10:20:42;;;;;;;0.65;0.65;;;;;;;;;;6836984;28;20027;-82
2021/05/19 10:24:07;;;;;;;1.25;0.73;;;;;;;;;;6842836;28;20031;-81
2021/05/19 10:27:45;;;;;;;3.15;1.00;;;;;;;;;;6831292;29;20123;-83
2021/05/19 10:31:24;;;;;;;1.15;0.90;;;;;;;;;;6828974;29;20110;-83
2021/05/19 10:34:45;;;;;;;1.10;1.00;;;;;;;;;;6826727;29;20027;-83
2021/05/19 10:38:26;;;;;;;2.55;1.00;;;;;;;;;;6823519;29;20066;-82
2021/05/19 10:41:49;;;;;;;4.70;1.17;;;;;;;;;;6794537;29;20036;-84
2021/05/19 10:45:15;;;;;;;1.33;1.02;;;;;;;;;;6806298;29;20094;-83
2021/05/19 10:48:35;;;;;;;2.38;1.40;;;;;;;;;;6825517;29;20032;-82
2021/05/19 10:52:08;;;;;;;2.65;1.35;;;;;;;;;;6819529;29;20039;-84
2021/05/19 10:59:19;;;;;;;2.50;1.35;;;;;;;;;;6827024;29;20036;-83
2021/05/19 11:06:15;;;;;;;3.67;1.10;;;;;;;;;;6827091;29;20031;-82
2021/05/19 11:09:40;;;;;;;2.40;1.20;;;;;;;;;;6817291;29;20095;-82
2021/05/19 11:13:00;;;;;;;1.25;1.10;;;;;;;;;;6798159;29;20489;-82
2021/05/19 11:16:27;;;;;;;4.28;1.13;;;;;;;;;;6793162;29;20048;-81
2021/05/19 11:19:47;;;;;;;1.40;1.00;;;;;;;;;;6821942;29;20047;-82
2021/05/19 11:23:12;;;;;;;1.90;1.00;;;;;;;;;;6816570;29;20031;-83
2021/05/19 11:26:39;;;;;;;1.15;0.90;;;;;;;;;;6817767;29;20024;-82
2021/05/19 11:30:02;;;;;;;1.55;0.90;;;;;;;;;;6814054;28;20055;-87
2021/05/19 11:33:23;;;;;;;1.83;1.00;;;;;;;;;;6823781;29;20409;-87
2021/05/19 11:36:49;;;;;;;1.45;1.05;;;;;;;;;;6809146;29;20504;-89
2021/05/19 11:40:10;;;;;;;1.05;1.00;;;;;;;;;;6826096;29;20066;-87
2021/05/19 11:43:36;;;;;;;1.10;1.00;;;;;;;;;;6821733;29;20050;-87
2021/05/19 11:46:56;;;;;;;3.42;1.30;;;;;;;;;;6831971;29;20035;-88
2021/05/19 11:50:21;;;;;;;2.95;0.95;;;;;;;;;;6802799;29;20144;-87
2021/05/19 11:54:01;;;;;;;2.83;1.20;;;;;;;;;;6819301;29;20046;-88
2021/05/19 11:57:22;;;;;;;0.93;0.80;;;;;;;;;;6824418;28;20026;-87
2021/05/19 12:00:52;;;;;;;2.88;1.13;;;;;;;;;;6817474;29;20382;-88
2021/05/19 12:04:17;;;;;;;1.13;1.00;;;;;;;;;;6811363;29;20462;-90
2021/05/19 12:07:38;;;;;;;1.10;1.00;;;;;;;;;;6821413;28;20122;-86
2021/05/19 12:11:04;;;;;;;1.10;0.90;;;;;;;;;;6800107;29;20039;-88
2021/05/19 12:14:24;;;;;;;2.92;0.90;;;;;;;;;;6783158;28;20043;-91
2021/05/19 12:17:45;;;;;;;7.43;1.30;;;;;;;;;;6815033;29;20545;-92
2021/05/19 12:21:11;;;;;;;4.13;1.45;;;;;;;;;;6797007;29;20091;-88
2021/05/19 12:24:32;;;;;;;2.60;0.93;;;;;;;;;;6788296;29;20082;-83
2021/05/19 12:27:57;;;;;;;1.70;0.90;;;;;;;;;;6786502;29;20032;-83
2021/05/19 12:31:25;;;;;;;1.80;1.10;;;;;;;;;;6862772;23;20517;-75
2021/05/19 12:35:00;;;;;;;1.23;0.90;;;;;;;;;;6806668;29;20111;-75
2021/05/19 12:38:24;;;;;;;1.58;0.98;;;;;;;;;;6802177;29;20039;-76
2021/05/19 12:41:47;;;;;;;2.25;0.90;;;;;;;;;;6791567;29;20498;-78
2021/05/19 12:45:09;;;;;;;1.15;0.90;;;;;;;;;;6799282;29;20038;-76
2021/05/19 12:48:37;;;;;;;3.10;0.80;;;;;;;;;;6798137;29;20439;-76
2021/05/19 12:51:59;;;;;;;2.20;1.13;;;;;;;;;;6798038;29;20119;-76
2021/05/19 12:55:22;;;;;;;2.17;1.02;;;;;;;;;;6818949;29;20414;-76
2021/05/19 12:59:01;;;;;;;3.38;1.10;;;;;;;;;;6808772;29;20373;-77
2021/05/19 13:02:24;;;;;;;2.50;1.13;;;;;;;;;;6814027;29;20028;-76
2021/05/19 13:05:59;;;;;;;1.10;0.90;;;;;;;;;;6811070;29;20035;-76
2021/05/19 13:09:24;;;;;;;2.08;0.93;;;;;;;;;;6811579;29;20074;-76
2021/05/19 13:12:51;;;;;;;1.98;1.00;;;;;;;;;;6805288;29;20505;-76
2021/05/19 13:16:19;;;;;;;1.55;1.00;;;;;;;;;;6795776;29;20087;-78
2021/05/19 13:20:07;;;;;;;2.65;1.00;;;;;;;;;;6813751;29;20094;-77
2021/05/19 13:23:41;;;;;;;2.40;1.20;;;;;;;;;;6813035;29;20398;-77
2021/05/19 13:27:02;;;;;;;1.23;0.90;;;;;;;;;;6813079;29;20500;-77
2021/05/19 13:30:27;;;;;;;2.33;1.10;;;;;;;;;;6813293;29;20047;-77
2021/05/19 13:34:03;;;;;;;2.80;0.90;;;;;;;;;;6812957;29;20466;-77
2021/05/19 13:37:23;;;;;;;2.65;0.93;;;;;;;;;;6805272;29;20039;-77
2021/05/19 13:40:44;;;;;;;1.83;0.90;;;;;;;;;;6809846;29;20110;-77
2021/05/19 13:44:06;;;;;;;6.07;1.00;;;;;;;;;;6812248;29;20039;-77
2021/05/19 13:47:26;;;;;;;5.00;1.33;;;;;;;;;;6812503;29;20462;-77
2021/05/19 13:50:46;;;;;;;4.45;1.13;;;;;;;;;;6787507;29;20027;-77
2021/05/19 13:54:07;;;;;;;4.35;1.10;;;;;;;;;;6791774;29;20075;-76
2021/05/19 13:57:28;;;;;;;0.93;0.90;;;;;;;;;;6804468;29;20032;-76
2021/05/19 14:00:48;;;;;;;1.65;1.08;;;;;;;;;;6800790;29;20036;-77
2021/05/19 14:04:09;;;;;;;12.00;1.23;;;;;;;;;;6811398;29;20059;-76
2021/05/19 14:07:29;;;;;;;0.95;0.93;;;;;;;;;;6811786;29;20028;-76
2021/05/19 14:28:18;;;;;;;;;;;;;;;;;;6810592;29;20043;-76
2021/05/19 14:31:39;;;;;;;6.60;1.07;;;;;;;;;;6801979;29;19933;-75
2021/05/19 14:35:03;;;;;;;2.28;1.10;;;;;;;;;;6813105;29;20471;-76
2021/05/19 15:00:53;;;;;;;2.63;1.40;;;;;;;;;;6654562;29;20042;-77
2021/05/19 15:04:13;;;;;;;1.98;1.00;;;;;;;;;;6654793;29;20049;-77
2021/05/19 15:07:34;;;;;;;1.27;0.90;;;;;;;;;;6652232;29;20035;-76
2021/05/19 15:10:54;;;;;;;3.55;1.20;;;;;;;;;;6644754;29;20129;-76
2021/05/19 15:14:15;;;;;;;1.92;1.20;;;;;;;;;;6655309;29;20042;-76
2021/05/19 15:17:35;;;;;;;3.90;1.00;;;;;;;;;;6726807;29;20027;-76
2021/05/19 15:20:56;;;;;;;2.78;1.20;;;;;;;;;;6806142;29;20036;-77
2021/05/19 15:24:16;;;;;;;1.50;0.90;;;;;;;;;;6803478;29;20031;-77
2021/05/19 15:27:37;;;;;;;5.45;1.17;;;;;;;;;;6808907;29;20059;-77
2021/05/19 15:30:58;;;;;;;3.67;1.15;;;;;;;;;;6804293;29;20071;-77
2021/05/19 15:34:19;;;;;;;2.15;1.05;;;;;;;;;;6806799;29;20040;-76
2021/05/19 15:37:39;;;;;;;3.35;1.30;;;;;;;;;;6810211;29;20038;-77
2021/05/19 15:41:00;;;;;;;2.55;1.25;;;;;;;;;;6811227;29;20038;-76
2021/05/19 15:44:20;;;;;;;2.28;0.82;;;;;;;;;;6810767;29;20126;-77
2021/05/19 15:47:40;;;;;;;2.35;1.02;;;;;;;;;;6794957;29;20048;-77
2021/05/19 15:51:01;;;;;;;4.13;1.00;;;;;;;;;;6796481;29;20064;-77
2021/05/19 15:54:21;;;;;;;5.05;1.40;;;;;;;;;;6792684;29;20042;-76
2021/05/19 15:57:42;;;;;;;1.95;1.10;;;;;;;;;;6792725;29;20044;-75
2021/05/19 16:01:02;;;;;;;1.23;0.80;;;;;;;;;;6799033;29;20078;-75
2021/05/19 16:04:25;;;;;;;2.97;1.20;;;;;;;;;;6802924;29;20032;-75
2021/05/19 16:07:45;;;;;;;1.65;0.90;;;;;;;;;;6807836;29;20160;-75
2021/05/19 16:11:07;;;;;;;6.55;1.27;;;;;;;;;;6800521;29;20031;-76
2021/05/19 16:14:28;;;;;;;5.22;1.25;;;;;;;;;;6810558;29;20035;-75
2021/05/19 16:17:48;;;;;;;2.42;1.00;;;;;;;;;;6801204;29;20372;-74
2021/05/19 16:21:09;;;;;;;3.33;1.13;;;;;;;;;;6806290;29;20506;-74
2021/05/19 16:24:29;;;;;;;3.60;0.90;;;;;;;;;;6809810;29;20028;-75
2021/05/19 16:27:49;;;;;;;3.92;0.90;;;;;;;;;;6804392;29;20040;-74
2021/05/19 16:31:12;;;;;;;1.45;0.93;;;;;;;;;;6788323;29;20044;-76
2021/05/19 16:34:32;;;;;;;7.10;0.98;;;;;;;;;;6787297;29;20035;-76
2021/05/19 16:37:52;;;;;;;2.53;0.90;;;;;;;;;;6805893;29;20028;-77
2021/05/19 16:41:13;;;;;;;5.88;1.30;;;;;;;;;;6785538;29;20028;-75
2021/05/19 16:44:35;;;;;;;4.22;1.20;;;;;;;;;;6797921;29;20040;-75
2021/05/19 16:47:55;;;;;;;3.17;0.90;;;;;;;;;;6810640;29;20109;-77
2021/05/19 16:51:15;;;;;;;3.42;1.00;;;;;;;;;;6812384;29;20108;-77
2021/05/19 16:54:38;;;;;;;1.73;0.90;;;;;;;;;;6810766;29;20063;-77
2021/05/19 16:57:59;;;;;;;3.92;1.00;;;;;;;;;;6811624;29;20036;-78
2021/05/19 17:01:31;;;;;;;4.82;1.10;;;;;;;;;;6804000;29;20235;-77
2021/05/19 17:04:52;;;;;;;4.72;1.00;;;;;;;;;;6806622;29;20050;-77
2021/05/19 17:08:12;;;;;;;5.13;0.80;;;;;;;;;;6811622;29;20059;-77
2021/05/19 17:11:34;;;;;;;1.83;1.17;;;;;;;;;;6800362;29;20028;-77
2021/05/19 17:14:54;;;;;;;3.08;0.70;;;;;;;;;;6804395;29;20115;-76
2021/05/19 17:18:17;;;;;;;0.95;0.70;;;;;;;;;;6805828;29;20028;-76
2021/05/19 17:21:37;;;;;;;0.90;0.77;;;;;;;;;;6798132;29;20051;-75
2021/05/19 17:24:59;;;;;;;5.32;1.00;;;;;;;;;;6796252;29;20036;-76
2021/05/19 17:28:19;;;;;;;3.30;1.13;;;;;;;;;;6782901;29;20122;-76
2021/05/19 17:31:40;;;;;;;5.78;1.20;;;;;;;;;;6798108;29;20051;-76
2021/05/19 17:35:01;;;;;;;2.22;0.98;;;;;;;;;;6791908;29;20055;-76
2021/05/19 17:38:21;;;;;;;6.63;1.20;;;;;;;;;;6793017;29;20306;-76
2021/05/19 17:41:42;;;;;;;4.05;1.02;;;;;;;;;;6807987;29;20048;-76
2021/05/19 17:45:04;;;;;;;2.88;0.70;;;;;;;;;;6807748;29;20433;-77
2021/05/19 17:48:24;;;;;;;8.10;1.17;;;;;;;;;;6799753;29;20047;-77
2021/05/19 17:51:47;;;;;;;4.82;0.90;;;;;;;;;;6806187;29;20028;-77
2021/05/19 17:55:08;;;;;;;2.97;0.90;;;;;;;;;;6800869;29;20040;-77
2021/05/19 17:58:28;;;;;;;3.65;0.70;;;;;;;;;;6802791;29;20126;-76
2021/05/19 18:01:49;;;;;;;5.15;1.20;;;;;;;;;;6801636;29;20047;-76
2021/05/19 18:05:10;;;;;;;1.60;0.80;;;;;;;;;;6805976;29;20032;-76
2021/05/19 18:08:31;;;;;;;4.45;1.27;;;;;;;;;;6789146;29;20038;-75
2021/05/19 18:11:53;;;;;;;1.73;0.70;;;;;;;;;;6806902;29;20035;-77
2021/05/19 18:15:14;;;;;;;4.93;0.98;;;;;;;;;;6809194;29;20038;-76
2021/05/19 18:18:36;;;;;;;5.57;1.05;;;;;;;;;;6812404;29;20036;-76
2021/05/19 18:21:59;;;;;;;6.82;1.10;;;;;;;;;;6811857;29;20073;-76
2021/05/19 18:25:19;;;;;;;2.50;1.00;;;;;;;;;;6795512;29;20130;-76
2021/05/19 18:28:42;;;;;;;1.25;0.70;;;;;;;;;;6802653;29;20043;-77
2021/05/19 18:35:36;;;;;;;2.30;1.00;;;;;;;;;;6800915;29;20035;-77
2021/05/19 18:38:59;;;;;;;4.25;1.17;;;;;;;;;;6803739;29;20027;-77
2021/05/19 18:42:22;;;;;;;3.28;1.05;;;;;;;;;;6803776;29;20031;-76
2021/05/19 18:45:43;;;;;;;1.52;0.80;;;;;;;;;;6807433;29;20118;-77
2021/05/19 18:49:03;;;;;;;4.53;1.05;;;;;;;;;;6810666;29;20035;-77
2021/05/19 18:52:24;;;;;;;1.13;0.80;;;;;;;;;;6800892;29;20049;-77
2021/05/19 18:55:44;;;;;;;0.77;0.77;;;;;;;;;;6793430;29;20488;-77
2021/05/19 18:59:05;;;;;;;0.80;0.80;;;;;;;;;;6801426;29;20395;-77
2021/05/19 19:02:25;;;;;;;3.90;0.90;;;;;;;;;;6792183;29;20028;-77
2021/05/19 19:05:46;;;;;;;1.83;0.90;;;;;;;;;;6799431;29;20043;-77
2021/05/19 19:09:11;;;;;;;2.83;1.10;;;;;;;;;;6806477;29;20076;-77
2021/05/19 19:12:31;;;;;;;0.95;0.70;;;;;;;;;;6799022;29;20114;-77
2021/05/19 19:15:51;;;;;;;5.30;1.08;;;;;;;;;;6800719;29;20456;-77
2021/05/19 19:19:12;;;;;;;1.92;1.00;;;;;;;;;;6802680;29;20032;-76
2021/05/19 19:22:32;;;;;;;4.68;1.00;;;;;;;;;;6805535;29;20559;-77
2021/05/19 19:25:54;;;;;;;5.60;0.90;;;;;;;;;;6807035;29;20110;-77
2021/05/19 19:29:19;;;;;;;4.32;0.82;;;;;;;;;;6797671;29;20043;-78
2021/05/19 19:32:39;;;;;;;1.73;1.00;;;;;;;;;;6780977;29;20051;-78
2021/05/19 19:35:59;;;;;;;8.50;1.45;;;;;;;;;;6809781;29;20063;-78
2021/05/19 19:39:20;;;;;;;2.67;1.33;;;;;;;;;;6781948;29;20024;-78
2021/05/19 19:42:42;;;;;;;1.48;1.35;;;;;;;;;;6819753;29;20213;-78
2021/05/19 19:46:05;;;;;;;3.33;0.82;;;;;;;;;;6795655;29;20043;-78
2021/05/19 19:49:27;;;;;;;2.67;1.20;;;;;;;;;;6786309;29;20054;-78
2021/05/19 19:52:48;;;;;;;2.13;0.90;;;;;;;;;;6787208;29;20032;-78
2021/05/19 19:56:09;;;;;;;8.85;1.00;;;;;;;;;;6790464;29;20448;-78
2021/05/19 19:59:30;;;;;;;4.57;1.20;;;;;;;;;;6807135;29;20086;-78
2021/05/19 20:02:57;;;;;;;3.25;1.08;;;;;;;;;;6800969;29;20060;-78
2021/05/19 20:06:17;;;;;;;1.88;1.00;;;;;;;;;;6800078;29;20487;-78
2021/05/19 20:09:38;;;;;;;5.65;1.02;;;;;;;;;;6793066;29;20405;-78
2021/05/19 20:12:58;;;;;;;5.70;1.23;;;;;;;;;;6807623;29;20028;-78
2021/05/19 20:16:19;;;;;;;4.95;0.88;;;;;;;;;;6797435;29;20043;-78
2021/05/19 20:19:39;;;;;;;4.85;1.00;;;;;;;;;;6805401;29;20123;-78
2021/05/19 20:22:59;;;;;;;3.40;0.95;;;;;;;;;;6806770;29;20035;-78
2021/05/19 20:26:20;;;;;;;3.20;1.00;;;;;;;;;;6791873;29;20422;-78
2021/05/19 20:29:40;;;;;;;3.28;0.90;;;;;;;;;;6805807;29;20039;-78
2021/05/19 20:33:04;;;;;;;7.03;1.27;;;;;;;;;;6800892;29;20024;-78
2021/05/19 20:36:28;;;;;;;7.32;0.95;;;;;;;;;;6797750;29;20039;-77
2021/05/19 20:39:50;;;;;;;5.75;1.48;;;;;;;;;;6806933;29;20442;-77
2021/05/19 20:43:10;;;;;;;6.32;1.30;;;;;;;;;;6798947;29;20450;-78
2021/05/19 20:46:31;;;;;;;6.60;1.55;;;;;;;;;;6801485;29;20493;-78
2021/05/19 20:49:51;;;;;;;1.98;0.90;;;;;;;;;;6789315;29;20111;-77
2021/05/19 20:53:11;;;;;;;8.52;1.40;;;;;;;;;;6778427;29;20647;-78
2021/05/19 20:56:33;;;;;;;3.47;1.27;;;;;;;;;;6794287;29;20035;-78
2021/05/19 20:59:53;;;;;;;2.05;1.50;;;;;;;;;;6797549;29;20054;-78
2021/05/19 21:03:14;;;;;;;1.85;0.80;;;;;;;;;;6796007;29;20040;-78
2021/05/19 21:06:42;;;;;;;7.15;1.50;;;;;;;;;;6802340;29;20040;-78
2021/05/19 21:10:05;;;;;;;2.85;1.20;;;;;;;;;;6794333;29;20035;-78